createdAt,value
2018-05-24T00:01:14.139Z,19.68
2018-05-24T00:03:42.473Z,19.65
2018-05-24T00:06:11.982Z,19.67
2018-05-24T00:08:40.301Z,19.66
2018-05-24T00:11:09.050Z,19.56
2018-05-24T00:13:37.415Z,19.47
2018-05-24T00:16:05.784Z,19.44
2018-05-24T00:18:34.211Z,19.47
2018-05-24T00:21:02.553Z,19.53
2018-05-24T00:23:31.475Z,19.61
2018-05-24T00:26:00.763Z,19.51
2018-05-24T00:28:29.636Z,19.60
2018-05-24T00:30:57.993Z,19.69
2018-05-24T00:33:27.035Z,19.64
2018-05-24T00:35:55.372Z,19.64
2018-05-24T00:38:24.122Z,19.67
2018-05-24T00:40:52.489Z,19.61
2018-05-24T00:43:21.566Z,19.65
2018-05-24T00:45:49.925Z,19.67
2018-05-24T00:48:18.257Z,19.55
2018-05-24T00:50:46.605Z,19.62
2018-05-24T00:53:14.981Z,19.64
2018-05-24T00:55:43.418Z,19.67
2018-05-24T00:58:12.178Z,19.76
2018-05-24T01:00:40.932Z,19.69
2018-05-24T01:03:10.176Z,19.52
2018-05-24T01:05:38.524Z,19.52
2018-05-24T01:08:06.866Z,19.54
2018-05-24T01:10:36.149Z,19.53
2018-05-24T01:13:05.366Z,19.56
2018-05-24T01:15:34.563Z,19.33
2018-05-24T01:18:04.002Z,19.31
2018-05-24T01:20:32.714Z,19.17
2018-05-24T01:23:01.043Z,19.28
2018-05-24T01:25:30.122Z,18.99
2018-05-24T01:27:58.465Z,19.30
2018-05-24T01:30:26.832Z,19.15
2018-05-24T01:32:55.204Z,19.02
2018-05-24T01:35:23.554Z,18.82
2018-05-24T01:37:52.766Z,18.83
2018-05-24T01:40:21.419Z,18.48
2018-05-24T01:42:49.782Z,18.68
2018-05-24T01:45:18.180Z,18.51
2018-05-24T01:47:46.986Z,18.56
2018-05-24T01:50:16.010Z,18.60
2018-05-24T01:52:44.343Z,18.49
2018-05-24T01:55:12.734Z,18.70
2018-05-24T01:57:41.074Z,18.53
2018-05-24T02:00:09.427Z,18.41
2018-05-24T02:02:38.312Z,18.32
2018-05-24T02:05:08.478Z,18.54
2018-05-24T02:07:36.813Z,18.60
2018-05-24T02:10:05.181Z,18.73
2018-05-24T02:12:33.506Z,18.63
2018-05-24T02:15:01.896Z,18.67
2018-05-24T02:17:31.633Z,18.74
2018-05-24T02:19:59.991Z,18.57
2018-05-24T02:22:28.382Z,18.40
2018-05-24T02:24:57.738Z,18.28
2018-05-24T02:27:26.076Z,18.37
2018-05-24T02:29:54.457Z,18.08
2018-05-24T02:32:22.791Z,18.18
2018-05-24T02:34:51.177Z,18.11
2018-05-24T02:37:19.977Z,18.14
2018-05-24T02:39:48.381Z,17.89
2018-05-24T02:42:17.363Z,17.86
2018-05-24T02:44:46.952Z,17.66
2018-05-24T02:47:15.309Z,17.68
2018-05-24T02:49:43.689Z,17.78
2018-05-24T02:52:12.186Z,17.74
2018-05-24T02:54:40.526Z,17.87
2018-05-24T02:57:08.965Z,17.78
2018-05-24T02:59:37.357Z,17.53
2018-05-24T03:02:05.722Z,17.72
2018-05-24T03:04:34.185Z,17.64
2018-05-24T03:07:02.546Z,17.49
2018-05-24T03:09:30.871Z,17.22
2018-05-24T03:11:59.216Z,17.38
2018-05-24T03:14:27.624Z,17.19
2018-05-24T03:16:56.165Z,17.23
2018-05-24T03:19:25.522Z,17.35
2018-05-24T03:21:53.886Z,17.39
2018-05-24T03:24:22.246Z,17.23
2018-05-24T03:26:51.346Z,17.29
2018-05-24T03:29:20.581Z,17.12
2018-05-24T03:31:48.958Z,17.17
2018-05-24T03:34:18.007Z,17.15
2018-05-24T03:36:46.700Z,16.96
2018-05-24T03:39:15.029Z,16.62
2018-05-24T03:41:43.388Z,16.81
2018-05-24T03:44:11.725Z,16.76
2018-05-24T03:46:41.020Z,16.96
2018-05-24T03:49:09.816Z,16.81
2018-05-24T03:51:39.551Z,16.72
2018-05-24T03:54:07.882Z,16.70
2018-05-24T03:56:36.291Z,16.66
2018-05-24T04:02:25.746Z,16.55
2018-05-24T04:04:55.993Z,16.56
2018-05-24T04:07:24.681Z,16.63
2018-05-24T04:09:53.017Z,16.47
2018-05-24T04:12:21.394Z,16.56
2018-05-24T04:14:50.069Z,16.57
2018-05-24T04:17:18.462Z,16.71
2018-05-24T04:19:47.661Z,16.79
2018-05-24T04:22:16.027Z,16.86
2018-05-24T04:24:44.376Z,16.67
2018-05-24T04:27:13.343Z,16.84
2018-05-24T04:29:41.708Z,16.89
2018-05-24T04:32:10.134Z,16.93
2018-05-24T04:34:39.395Z,16.58
2018-05-24T04:37:08.239Z,16.62
2018-05-24T04:39:36.581Z,16.60
2018-05-24T04:42:04.944Z,16.49
2018-05-24T04:44:33.275Z,16.54
2018-05-24T04:47:01.646Z,16.48
2018-05-24T04:49:30.601Z,16.57
2018-05-24T04:51:58.972Z,16.63
2018-05-24T04:54:28.145Z,16.48
2018-05-24T04:56:56.829Z,16.61
2018-05-24T04:59:25.167Z,16.66
2018-05-24T05:01:53.770Z,16.85
2018-05-24T05:04:22.180Z,16.85
2018-05-24T05:06:50.589Z,16.77
2018-05-24T05:09:19.278Z,16.94
2018-05-24T05:11:48.004Z,16.86
2018-05-24T05:14:16.337Z,16.81
2018-05-24T05:16:44.713Z,16.91
2018-05-24T05:19:13.094Z,16.97
2018-05-24T05:21:43.425Z,16.86
2018-05-24T05:24:12.016Z,16.96
2018-05-24T05:26:41.285Z,17.23
2018-05-24T05:29:10.252Z,17.25
2018-05-24T05:31:38.655Z,17.33
2018-05-24T05:34:07.241Z,17.09
2018-05-24T05:36:35.656Z,17.21
2018-05-24T05:39:03.985Z,17.39
2018-05-24T05:41:32.360Z,17.52
2018-05-24T05:44:01.349Z,17.60
2018-05-24T05:46:30.489Z,17.48
2018-05-24T05:48:58.830Z,17.51
2018-05-24T05:51:28.043Z,17.79
2018-05-24T05:53:56.380Z,17.68
2018-05-24T05:56:24.973Z,17.56
2018-05-24T05:58:54.813Z,17.56
2018-05-24T06:01:23.229Z,17.67
2018-05-24T06:03:52.882Z,17.63
2018-05-24T06:06:22.135Z,17.81
2018-05-24T06:08:50.469Z,17.83
2018-05-24T06:11:20.169Z,17.74
2018-05-24T06:13:48.869Z,17.78
2018-05-24T06:16:17.208Z,17.75
2018-05-24T06:18:46.048Z,17.80
2018-05-24T06:21:15.308Z,17.85
2018-05-24T06:23:44.021Z,17.70
2018-05-24T06:26:13.943Z,17.63
2018-05-24T06:28:42.280Z,17.62
2018-05-24T06:31:10.686Z,17.68
2018-05-24T06:33:39.252Z,17.55
2018-05-24T06:36:07.618Z,17.61
2018-05-24T06:38:36.002Z,17.69
2018-05-24T06:41:04.373Z,17.63
2018-05-24T06:43:33.520Z,17.60
2018-05-24T06:46:02.816Z,17.38
2018-05-24T06:48:31.206Z,17.24
2018-05-24T06:51:00.279Z,17.48
2018-05-24T06:53:29.395Z,17.49
2018-05-24T06:55:59.188Z,17.52
2018-05-24T06:58:28.095Z,17.29
2018-05-24T07:00:57.625Z,17.36
2018-05-24T07:03:26.186Z,17.49
2018-05-24T07:05:55.962Z,17.56
2018-05-24T07:08:25.073Z,17.56
2018-05-24T07:10:53.412Z,17.49
2018-05-24T07:13:22.710Z,17.44
2018-05-24T07:15:51.049Z,17.30
2018-05-24T07:18:20.397Z,17.37
2018-05-24T07:20:50.201Z,17.53
2018-05-24T07:23:18.846Z,17.49
2018-05-24T07:25:47.476Z,17.55
2018-05-24T07:28:16.648Z,17.30
2018-05-24T07:30:45.322Z,17.49
2018-05-24T07:33:14.401Z,17.63
2018-05-24T07:35:43.890Z,17.75
2018-05-24T07:38:12.257Z,17.83
2018-05-24T07:40:40.729Z,18.02
2018-05-24T07:43:09.141Z,18.20
2018-05-24T07:45:39.582Z,18.20
2018-05-24T07:48:09.282Z,18.12
2018-05-24T07:50:37.967Z,18.24
2018-05-24T07:53:06.731Z,18.27
2018-05-24T07:55:35.108Z,18.10
2018-05-24T07:58:03.808Z,18.02
2018-05-24T08:00:32.162Z,18.10
2018-05-24T08:03:00.647Z,18.09
2018-05-24T08:05:29.036Z,18.09
2018-05-24T08:07:57.437Z,18.06
2018-05-24T08:10:26.169Z,18.02
2018-05-24T08:12:55.181Z,17.82
2018-05-24T08:15:24.231Z,17.97
2018-05-24T08:17:53.716Z,18.18
2018-05-24T08:20:22.115Z,18.08
2018-05-24T08:22:50.482Z,18.18
2018-05-24T08:25:18.914Z,18.24
2018-05-24T08:27:47.297Z,18.27
2018-05-24T08:30:16.196Z,18.37
2018-05-24T08:32:45.371Z,18.41
2018-05-24T08:35:14.298Z,18.39
2018-05-24T08:37:42.996Z,18.55
2018-05-24T08:40:11.342Z,18.78
2018-05-24T08:42:40.658Z,18.90
2018-05-24T08:45:10.282Z,19.14
2018-05-24T08:47:39.590Z,19.13
2018-05-24T08:50:08.318Z,19.33
2018-05-24T08:52:37.566Z,19.32
2018-05-24T08:55:06.755Z,19.34
2018-05-24T08:57:36.549Z,19.35
2018-05-24T09:00:05.833Z,19.58
2018-05-24T09:02:34.469Z,19.61
2018-05-24T09:05:02.876Z,19.76
2018-05-24T09:07:31.314Z,19.49
2018-05-24T09:10:00.628Z,19.74
2018-05-24T09:12:29.005Z,19.66
2018-05-24T09:14:57.625Z,19.78
2018-05-24T09:17:26.469Z,19.74
2018-05-24T09:19:54.801Z,19.64
2018-05-24T09:22:23.437Z,19.72
2018-05-24T09:24:52.932Z,19.48
2018-05-24T09:27:22.157Z,19.56
2018-05-24T09:29:51.388Z,19.77
2018-05-24T09:32:19.754Z,19.69
2018-05-24T09:34:48.614Z,19.64
2018-05-24T09:37:17.034Z,19.75
2018-05-24T09:39:45.462Z,19.70
2018-05-24T09:42:13.876Z,19.74
2018-05-24T09:44:42.478Z,19.79
2018-05-24T09:47:11.529Z,19.76
2018-05-24T09:49:40.759Z,19.72
2018-05-24T09:52:09.119Z,19.78
2018-05-24T09:54:38.373Z,19.85
2018-05-24T09:57:07.375Z,19.79
2018-05-24T09:59:36.110Z,19.92
2018-05-24T10:02:04.797Z,19.90
2018-05-24T10:04:33.228Z,19.72
2018-05-24T10:07:03.552Z,19.79
2018-05-24T10:09:32.637Z,19.81
2018-05-24T10:12:01.056Z,19.71
2018-05-24T10:14:29.458Z,19.88
2018-05-24T10:16:58.730Z,19.95
2018-05-24T10:19:27.093Z,19.96
2018-05-24T10:21:57.198Z,20.08
2018-05-24T10:24:27.371Z,19.94
2018-05-24T10:26:56.943Z,20.01
2018-05-24T10:29:26.606Z,20.13
2018-05-24T10:31:54.844Z,20.18
2018-05-24T10:34:23.248Z,20.13
2018-05-24T10:36:53.461Z,20.20
2018-05-24T10:39:21.853Z,20.22
2018-05-24T10:41:51.097Z,20.07
2018-05-24T10:44:19.527Z,20.20
2018-05-24T10:46:47.983Z,19.87
2018-05-24T10:49:16.681Z,20.02
2018-05-24T10:51:45.801Z,19.97
2018-05-24T10:54:14.258Z,19.98
2018-05-24T10:56:42.594Z,19.93
2018-05-24T10:59:13.614Z,19.95
2018-05-24T11:01:41.962Z,19.94
2018-05-24T11:04:11.144Z,20.01
2018-05-24T11:06:39.481Z,20.00
2018-05-24T11:09:08.199Z,19.93
2018-05-24T11:11:37.895Z,19.98
2018-05-24T11:14:06.359Z,19.90
2018-05-24T11:16:34.705Z,19.75
2018-05-24T11:19:03.913Z,19.81
2018-05-24T11:21:32.275Z,19.76
2018-05-24T11:24:00.639Z,19.67
2018-05-24T11:26:29.854Z,19.51
2018-05-24T11:28:58.221Z,19.61
2018-05-24T11:31:26.612Z,19.32
2018-05-24T11:33:55.753Z,19.39
2018-05-24T11:36:25.119Z,19.14
2018-05-24T11:38:53.481Z,19.20
2018-05-24T11:41:22.850Z,19.39
2018-05-24T11:43:52.017Z,19.41
2018-05-24T11:46:20.374Z,19.43
2018-05-24T11:48:49.728Z,19.65
2018-05-24T11:51:18.386Z,19.73
2018-05-24T11:53:49.249Z,19.89
2018-05-24T11:56:18.440Z,19.89
2018-05-24T11:58:46.918Z,20.00
2018-05-24T12:01:16.903Z,20.06
2018-05-24T12:03:45.279Z,20.15
2018-05-24T12:06:15.183Z,20.17
2018-05-24T12:08:43.559Z,20.24
2018-05-24T12:11:13.096Z,20.49
2018-05-24T12:13:42.723Z,20.66
2018-05-24T12:16:11.071Z,21.06
2018-05-24T12:18:39.756Z,21.02
2018-05-24T12:21:08.111Z,21.18
2018-05-24T12:23:36.490Z,21.49
2018-05-24T12:26:05.373Z,21.42
2018-05-24T12:28:34.361Z,21.53
2018-05-24T12:31:02.992Z,21.41
2018-05-24T12:33:31.591Z,21.50
2018-05-24T12:36:00.229Z,21.73
2018-05-24T12:38:28.646Z,21.84
2018-05-24T12:40:57.832Z,21.94
2018-05-24T12:43:26.950Z,22.24
2018-05-24T12:45:57.335Z,22.53
2018-05-24T12:48:26.487Z,22.33
2018-05-24T12:50:55.503Z,22.10
2018-05-24T12:53:23.861Z,22.21
2018-05-24T12:55:52.231Z,22.12
2018-05-24T12:58:20.838Z,21.84
2018-05-24T13:00:49.958Z,22.02
2018-05-24T13:03:18.340Z,22.01
2018-05-24T13:05:46.712Z,22.06
2018-05-24T13:08:15.047Z,21.84
2018-05-24T13:10:43.397Z,22.12
2018-05-24T13:13:11.764Z,22.05
2018-05-24T13:15:40.140Z,21.92
2018-05-24T13:18:08.516Z,21.68
2018-05-24T13:20:36.905Z,21.56
2018-05-24T13:23:05.814Z,21.25
2018-05-24T13:25:34.147Z,21.03
2018-05-24T13:28:02.510Z,20.78
2018-05-24T13:30:32.454Z,20.41
2018-05-24T13:33:01.250Z,20.32
2018-05-24T13:35:30.637Z,20.43
2018-05-24T13:37:58.984Z,20.05
2018-05-24T13:40:27.339Z,20.25
2018-05-24T13:42:56.943Z,20.46
2018-05-24T13:45:25.278Z,20.20
2018-05-24T13:47:53.663Z,20.48
2018-05-24T13:50:22.889Z,20.47
2018-05-24T13:52:51.225Z,20.22
2018-05-24T13:55:20.034Z,20.05
2018-05-24T13:57:48.406Z,20.11
2018-05-24T14:00:17.013Z,20.00
2018-05-24T14:02:45.337Z,19.80
2018-05-24T14:05:14.901Z,20.05
2018-05-24T14:07:43.255Z,19.81
2018-05-24T14:10:11.625Z,20.02
2018-05-24T14:12:40.708Z,19.72
2018-05-24T14:15:09.140Z,19.89
2018-05-24T14:17:37.493Z,20.05
2018-05-24T14:20:06.798Z,19.99
2018-05-24T14:22:35.149Z,20.01
2018-05-24T14:25:03.532Z,20.12
2018-05-24T14:27:32.997Z,20.41
2018-05-24T14:30:02.143Z,20.41
2018-05-24T14:32:30.976Z,20.37
2018-05-24T14:35:00.714Z,20.01
2018-05-24T14:37:29.057Z,20.25
2018-05-24T14:39:57.427Z,20.30
2018-05-24T14:42:25.778Z,20.36
2018-05-24T14:44:54.197Z,20.26
2018-05-24T14:47:23.311Z,20.10
2018-05-24T14:49:51.902Z,20.15
2018-05-24T14:52:20.664Z,20.01
2018-05-24T14:54:52.059Z,19.81
2018-05-24T14:57:20.985Z,20.01
2018-05-24T14:59:49.656Z,19.97
2018-05-24T15:02:17.994Z,19.61
2018-05-24T15:04:46.361Z,19.73
2018-05-24T15:07:15.123Z,19.78
2018-05-24T15:09:43.545Z,19.71
2018-05-24T15:12:12.385Z,19.95
2018-05-24T15:14:41.195Z,19.85
2018-05-24T15:17:09.533Z,19.97
2018-05-24T15:19:37.916Z,20.00
2018-05-24T15:22:06.268Z,20.27
2018-05-24T15:24:35.862Z,20.16
2018-05-24T15:27:06.027Z,20.36
2018-05-24T15:29:35.257Z,20.36
2018-05-24T15:32:04.622Z,20.35
2018-05-24T15:34:33.692Z,20.18
2018-05-24T15:37:02.438Z,20.21
2018-05-24T15:39:31.486Z,20.18
2018-05-24T15:41:59.830Z,20.34
2018-05-24T15:44:28.941Z,20.20
2018-05-24T15:46:57.520Z,20.41
2018-05-24T15:49:26.476Z,20.52
2018-05-24T15:51:54.924Z,20.42
2018-05-24T15:54:24.257Z,20.41
2018-05-24T15:56:52.667Z,20.50
2018-05-24T15:59:21.074Z,20.50
2018-05-24T16:01:49.406Z,20.57
2018-05-24T16:04:19.364Z,20.63
2018-05-24T16:06:47.712Z,20.55
2018-05-24T16:09:18.952Z,20.72
2018-05-24T16:11:47.621Z,20.39
2018-05-24T16:14:15.979Z,20.70
2018-05-24T16:16:44.352Z,20.84
2018-05-24T16:19:12.714Z,21.02
2018-05-24T16:21:42.144Z,21.10
2018-05-24T16:24:11.453Z,20.77
2018-05-24T16:26:40.117Z,20.52
2018-05-24T16:29:09.182Z,20.57
2018-05-24T16:31:37.583Z,20.84
2018-05-24T16:34:05.999Z,20.93
2018-05-24T16:36:35.133Z,21.02
2018-05-24T16:39:03.529Z,21.16
2018-05-24T16:41:32.813Z,21.13
2018-05-24T16:44:01.419Z,21.01
2018-05-24T16:46:30.646Z,20.86
2018-05-24T16:48:59.015Z,20.88
2018-05-24T16:51:27.988Z,20.80
2018-05-24T16:53:56.592Z,20.82
2018-05-24T16:56:24.993Z,20.70
2018-05-24T16:58:53.769Z,20.68
2018-05-24T17:01:22.159Z,20.77
2018-05-24T17:03:50.541Z,20.56
2018-05-24T17:06:19.220Z,20.66
2018-05-24T17:08:47.594Z,20.73
2018-05-24T17:11:15.981Z,20.61
2018-05-24T17:13:45.134Z,20.90
2018-05-24T17:16:13.493Z,21.11
2018-05-24T17:18:41.955Z,21.25
2018-05-24T17:21:11.089Z,21.53
2018-05-24T17:23:41.078Z,21.70
2018-05-24T17:26:10.348Z,21.59
2018-05-24T17:28:38.814Z,21.68
2018-05-24T17:31:07.865Z,21.54
2018-05-24T17:33:37.293Z,21.58
2018-05-24T17:36:05.709Z,21.63
2018-05-24T17:38:34.842Z,21.35
2018-05-24T17:41:03.211Z,21.17
2018-05-24T17:43:31.603Z,21.19
2018-05-24T17:46:00.747Z,20.90
2018-05-24T17:48:29.107Z,20.96
2018-05-24T17:50:58.283Z,20.72
2018-05-24T17:53:28.124Z,20.83
2018-05-24T17:55:56.925Z,20.59
2018-05-24T17:58:25.611Z,20.29
2018-05-24T18:00:54.712Z,20.39
2018-05-24T18:03:23.105Z,20.27
2018-05-24T18:05:51.404Z,20.58
2018-05-24T18:08:19.759Z,20.29
2018-05-24T18:10:48.165Z,20.03
2018-05-24T18:13:17.123Z,20.26
2018-05-24T18:15:45.793Z,20.22
2018-05-24T18:18:14.139Z,20.25
2018-05-24T18:20:42.510Z,20.15
2018-05-24T18:23:11.791Z,20.24
2018-05-24T18:25:40.170Z,20.18
2018-05-24T18:28:09.406Z,20.15
2018-05-24T18:30:37.772Z,20.10
2018-05-24T18:33:06.125Z,20.04
2018-05-24T18:35:35.125Z,20.06
2018-05-24T18:38:04.837Z,20.09
2018-05-24T18:40:33.857Z,20.08
2018-05-24T18:43:02.679Z,19.95
2018-05-24T18:45:31.058Z,19.82
2018-05-24T18:47:59.453Z,19.93
2018-05-24T18:50:28.041Z,19.73
2018-05-24T18:52:56.390Z,19.65
2018-05-24T18:55:24.994Z,19.68
2018-05-24T18:57:53.577Z,19.72
2018-05-24T19:00:22.650Z,19.73
2018-05-24T19:02:51.419Z,19.77
2018-05-24T19:05:19.838Z,19.68
2018-05-24T19:07:48.492Z,19.64
2018-05-24T19:10:18.329Z,19.61
2018-05-24T19:12:46.723Z,19.54
2018-05-24T19:15:15.670Z,19.57
2018-05-24T19:17:44.062Z,19.56
2018-05-24T19:20:13.361Z,19.61
2018-05-24T19:22:43.100Z,19.56
2018-05-24T19:25:11.863Z,19.53
2018-05-24T19:27:40.765Z,19.46
2018-05-24T19:30:09.173Z,19.43
2018-05-24T19:32:38.382Z,19.44
2018-05-24T19:35:07.289Z,19.42
2018-05-24T19:37:36.320Z,19.34
2018-05-24T19:40:04.928Z,19.32
2018-05-24T19:42:33.310Z,19.30
2018-05-24T19:45:01.687Z,19.25
2018-05-24T19:47:30.030Z,19.23
2018-05-24T19:49:59.893Z,19.11
2018-05-24T19:52:28.600Z,19.02
2018-05-24T19:54:57.005Z,18.94
2018-05-24T19:57:25.718Z,18.91
2018-05-24T19:59:54.424Z,18.94
2018-05-24T20:02:22.766Z,18.95
2018-05-24T20:04:51.152Z,18.97
2018-05-24T20:07:20.448Z,18.97
2018-05-24T20:09:48.848Z,18.92
2018-05-24T20:12:17.232Z,18.87
2018-05-24T20:14:45.601Z,18.83
2018-05-24T20:17:14.020Z,18.68
2018-05-24T20:19:43.290Z,18.77
2018-05-24T20:22:11.698Z,18.73
2018-05-24T20:24:40.418Z,18.51
2018-05-24T20:27:09.100Z,18.64
2018-05-24T20:29:37.503Z,18.45
2018-05-24T20:32:06.471Z,18.49
2018-05-24T20:34:34.959Z,18.49
2018-05-24T20:37:03.357Z,18.51
2018-05-24T20:39:32.637Z,18.46
2018-05-24T20:42:01.930Z,18.46
2018-05-24T20:44:30.462Z,18.35
2018-05-24T20:46:58.818Z,18.32
2018-05-24T20:49:27.858Z,18.21
2018-05-24T20:51:56.672Z,18.13
2018-05-24T20:54:25.002Z,18.16
2018-05-24T20:56:53.379Z,18.13
2018-05-24T20:59:22.616Z,18.11
2018-05-24T21:01:51.371Z,18.14
2018-05-24T21:04:20.109Z,18.19
2018-05-24T21:06:48.542Z,18.22
2018-05-24T21:09:18.221Z,18.24
2018-05-24T21:11:47.215Z,18.27
2018-05-24T21:14:15.881Z,18.32
2018-05-24T21:16:44.582Z,18.20
2018-05-24T21:19:12.928Z,18.09
2018-05-24T21:21:42.279Z,18.00
2018-05-24T21:24:10.641Z,17.96
2018-05-24T21:26:39.822Z,18.03
2018-05-24T21:29:08.217Z,17.99
2018-05-24T21:31:36.588Z,17.92
2018-05-24T21:34:05.662Z,17.95
2018-05-24T21:36:34.121Z,17.95
2018-05-24T21:39:02.465Z,17.88
2018-05-24T21:41:31.098Z,17.94
2018-05-24T21:44:00.357Z,17.95
2018-05-24T21:46:28.747Z,17.91
2018-05-24T21:48:57.384Z,18.01
2018-05-24T21:51:25.752Z,17.90
2018-05-24T21:53:54.144Z,17.95
2018-05-24T21:56:24.005Z,17.98
2018-05-24T21:58:52.351Z,17.92
2018-05-24T22:01:20.757Z,17.91
2018-05-24T22:03:49.104Z,17.88
2018-05-24T22:06:18.424Z,17.94
2018-05-24T22:08:47.032Z,17.94
2018-05-24T22:11:15.392Z,17.88
2018-05-24T22:13:43.733Z,17.84
2018-05-24T22:16:12.351Z,17.90
2018-05-24T22:18:41.516Z,17.94
2018-05-24T22:21:09.906Z,17.92
2018-05-24T22:23:38.237Z,17.92
2018-05-24T22:26:06.844Z,17.85
2018-05-24T22:28:35.235Z,17.76
2018-05-24T22:31:03.713Z,17.78
2018-05-24T22:33:33.330Z,17.81
2018-05-24T22:36:02.098Z,17.78
2018-05-24T22:38:31.347Z,17.74
2018-05-24T22:40:59.721Z,17.71
2018-05-24T22:43:28.290Z,17.69
2018-05-24T22:45:57.438Z,17.62
2018-05-24T22:48:27.482Z,17.71
2018-05-24T22:50:56.252Z,17.70
2018-05-24T22:53:25.235Z,17.78
2018-05-24T22:55:53.905Z,17.71
2018-05-24T22:58:22.370Z,17.58
2018-05-24T23:00:51.103Z,17.56
2018-05-24T23:03:21.823Z,17.57
2018-05-24T23:05:50.518Z,17.51
2018-05-24T23:08:18.856Z,17.55
2018-05-24T23:10:48.089Z,17.53
2018-05-24T23:13:17.528Z,17.51
2018-05-24T23:15:45.886Z,17.50
2018-05-24T23:18:14.903Z,17.48
2018-05-24T23:20:43.279Z,17.36
2018-05-24T23:23:12.401Z,17.38
2018-05-24T23:25:40.790Z,17.32
2018-05-24T23:28:10.032Z,17.22
2018-05-24T23:30:38.405Z,17.26
2018-05-24T23:33:06.797Z,17.30
2018-05-24T23:35:36.032Z,17.31
2018-05-24T23:38:04.376Z,17.31
2018-05-24T23:40:33.595Z,17.34
2018-05-24T23:43:02.755Z,17.33
2018-05-24T23:45:31.556Z,17.35
2018-05-24T23:47:59.968Z,17.31
2018-05-24T23:50:28.783Z,17.30
2018-05-24T23:52:57.380Z,17.27
2018-05-24T23:55:25.777Z,17.28
2018-05-24T23:57:54.131Z,17.28
